Overview Statistics Trail Chart Weather Telemetry Raw packets
 

This is the latest recevied weather packets stored in our database for station/object KG7FOQ-13. If no packets are shown the sender has not sent any weather packets the latest 10 day(s).

<< 101 102 103 104 105 106 107 >>
Time Temp. Humidity Pressure Rain* Wind** Luminosity Snow
1787848167 27.22° C 23% 1018.7 hPa 0 mm - - -
1787847867 27.22° C 19% 1018.6 hPa 0 mm - - -
1787847264 28.33° C 18% 1019 hPa 0 mm - - -
1787846964 28.33° C 18% 1018.8 hPa 0 mm - - -
1787846363 28.33° C 18% 1018.9 hPa 0 mm - - -
1787846062 27.78° C 21% 1018.9 hPa 0 mm - - -
1787845762 26.67° C 30% 1018.8 hPa 0 mm - - -
1787845461 24.44° C 45% 1018.7 hPa 0 mm - - -
1787845161 23.33° C 46% 1018.7 hPa 0 mm - - -
1787844559 21.67° C 62% 1018.8 hPa 0 mm - - -
1787844258 21.11° C 64% 1018.8 hPa 0 mm - - -
1787843958 21.11° C 65% 1018.8 hPa 0 mm - - -
1787843658 20° C 67% 1018.7 hPa 0 mm - - -
1787843357 20° C 68% 1018.7 hPa 0 mm - - -
1787843056 18.89° C 69% 1018.7 hPa 0 mm - - -
1787842756 18.33° C 72% 1018.8 hPa 0 mm - - -
1787842455 17.78° C 72% 1018.8 hPa 0 mm - - -
1787841851 16.67° C 76% 1018.9 hPa 0 mm - - -
1787841583 16.67° C 78% 1018.8 hPa 0 mm - - -
1787841551 16.67° C 78% 1018.8 hPa 0 mm - - -
1787841250 16.67° C 80% 1019.2 hPa 0 mm - - -
1787840950 16.67° C 74% 1019 hPa 0 mm - - -
1787840649 16.67° C 75% 1018.8 hPa 0 mm - - -
1787840349 17.22° C 75% 1018.9 hPa 0 mm - - -
1787840048 17.22° C 74% 1019.2 hPa 0 mm - - -

* Rain latest hour (hover to see other rain measurements)
** Current wind speed in m/s (hover to see current wind gust speed)